createdAt,value
2023-02-18T00:00:43.476Z,102000.38
2023-02-18T00:02:46.171Z,101999.47
2023-02-18T00:04:47.686Z,102007.34
2023-02-18T00:06:49.208Z,102004.75
2023-02-18T00:08:52.059Z,102000.41
2023-02-18T00:10:54.003Z,101999.53
2023-02-18T00:12:55.667Z,102011.78
2023-02-18T00:14:57.908Z,102006.53
2023-02-18T00:16:59.342Z,102002.16
2023-02-18T00:19:04.801Z,102003.97
2023-02-18T00:21:08.671Z,101989.97
2023-02-18T00:23:10.159Z,101999.59
2023-02-18T00:25:11.629Z,102005.75
2023-02-18T00:27:13.081Z,101998.78
2023-02-18T00:29:14.738Z,102014.53
2023-02-18T00:31:19.609Z,102011.03
2023-02-18T00:33:21.492Z,102007.56
2023-02-18T00:35:23.034Z,102007.56
2023-02-18T00:37:24.510Z,102015.44
2023-02-18T00:39:26.191Z,102005.84
2023-02-18T00:41:29.135Z,102008.50
2023-02-18T00:43:30.811Z,102012.03
2023-02-18T00:45:32.289Z,102006.81
2023-02-18T00:47:33.742Z,102002.44
2023-02-18T00:49:35.657Z,102008.59
2023-02-18T00:51:37.198Z,102007.72
2023-02-18T00:53:39.296Z,102002.47
2023-02-18T00:55:45.316Z,102004.22
2023-02-18T00:57:46.758Z,101999.00
2023-02-18T00:59:48.252Z,101992.00
2023-02-18T01:01:49.753Z,101993.75
2023-02-18T01:03:51.495Z,101989.41
2023-02-18T01:05:53.359Z,101990.28
2023-02-18T01:07:54.915Z,101982.41
2023-02-18T01:09:56.389Z,101976.28
2023-02-18T01:11:57.852Z,101987.66
2023-02-18T01:13:59.339Z,101974.56
2023-02-18T01:16:00.909Z,101981.56
2023-02-18T01:18:02.401Z,101979.81
2023-02-18T01:20:04.194Z,101976.31
2023-02-18T01:22:06.804Z,101974.56
2023-02-18T01:24:08.254Z,101978.94
2023-02-18T01:26:10.954Z,101978.94
2023-02-18T01:28:14.181Z,101964.06
2023-02-18T01:30:17.502Z,101970.19
2023-02-18T01:32:19.157Z,101965.81
2023-02-18T01:34:20.706Z,101964.97
2023-02-18T01:36:22.235Z,101961.47
2023-02-18T01:38:23.722Z,101963.22
2023-02-18T01:40:28.545Z,101966.72
2023-02-18T01:42:30.374Z,101963.22
2023-02-18T01:44:34.977Z,101951.84
2023-02-18T01:46:36.448Z,101941.34
2023-02-18T01:48:50.127Z,101933.47
2023-02-18T01:50:56.987Z,101943.09
2023-02-18T01:52:58.612Z,101950.09
2023-02-18T01:55:00.326Z,101944.00
2023-02-18T01:57:09.278Z,101937.88
2023-02-18T01:59:18.037Z,101936.13
2023-02-18T02:01:19.538Z,101937.88
2023-02-18T02:03:21.139Z,101936.13
2023-02-18T02:05:22.822Z,101943.13
2023-02-18T02:07:26.796Z,101947.50
2023-02-18T02:09:31.018Z,101951.00
2023-02-18T02:11:49.365Z,101950.09
2023-02-18T02:14:23.578Z,101952.72
2023-02-18T02:16:28.106Z,101953.59
2023-02-18T02:18:38.756Z,101947.50
2023-02-18T02:21:07.343Z,101950.13
2023-02-18T02:23:21.086Z,101945.75
2023-02-18T02:25:34.377Z,101940.50
2023-02-18T02:28:14.696Z,101943.13
2023-02-18T02:30:16.149Z,101937.88
2023-02-18T02:32:48.644Z,101946.63
2023-02-18T02:34:56.349Z,101938.75
2023-02-18T02:37:00.501Z,101934.38
2023-02-18T02:39:25.520Z,101936.19
2023-02-18T02:41:51.600Z,101929.19
2023-02-18T02:44:20.589Z,101930.94
2023-02-18T02:46:28.475Z,101920.44
2023-02-18T02:48:32.902Z,101916.06
2023-02-18T02:50:46.433Z,101916.94
2023-02-18T02:52:57.203Z,101909.94
2023-02-18T02:54:58.914Z,101903.81
2023-02-18T02:57:18.683Z,101896.81
2023-02-18T02:59:25.363Z,101886.31
2023-02-18T03:01:58.826Z,101880.19
2023-02-18T03:04:52.661Z,101884.56
2023-02-18T03:07:09.756Z,101877.56
2023-02-18T03:09:21.981Z,101884.56
2023-02-18T03:11:23.718Z,101884.56
2023-02-18T03:14:00.568Z,101878.44
2023-02-18T03:16:24.160Z,101871.44
2023-02-18T03:18:46.954Z,101870.59
2023-02-18T03:20:57.308Z,101869.72
2023-02-18T03:23:03.263Z,101869.72
2023-02-18T03:25:05.906Z,101860.97
2023-02-18T03:27:32.252Z,101854.84
2023-02-18T03:29:35.097Z,101859.22
2023-02-18T03:31:39.152Z,101846.97
2023-02-18T03:33:46.264Z,101853.97
2023-02-18T03:35:49.858Z,101859.22
2023-02-18T03:38:01.096Z,101864.47
2023-02-18T03:40:03.791Z,101853.06
2023-02-18T03:42:05.604Z,101844.31
2023-02-18T03:44:08.857Z,101846.94
2023-02-18T03:46:10.668Z,101840.81
2023-02-18T03:48:12.347Z,101838.19
2023-02-18T03:50:13.936Z,101849.56
2023-02-18T03:52:15.454Z,101840.81
2023-02-18T03:54:16.965Z,101832.94
2023-02-18T03:56:19.194Z,101839.94
2023-02-18T03:58:20.731Z,101834.69
2023-02-18T04:00:22.283Z,101838.19
2023-02-18T04:02:23.745Z,101834.66
2023-02-18T04:04:25.440Z,101841.66
2023-02-18T04:06:26.984Z,101840.78
2023-02-18T04:08:28.474Z,101840.75
2023-02-18T04:10:29.956Z,101840.75
2023-02-18T04:12:31.463Z,101831.13
2023-02-18T04:14:32.978Z,101831.13
2023-02-18T04:16:34.550Z,101828.47
2023-02-18T04:18:36.052Z,101828.47
2023-02-18T04:20:37.762Z,101830.22
2023-02-18T04:22:39.440Z,101825.81
2023-02-18T04:24:40.955Z,101821.44
2023-02-18T04:26:42.429Z,101815.31
2023-02-18T04:28:43.902Z,101800.44
2023-02-18T04:30:47.318Z,101801.31
2023-02-18T04:32:48.872Z,101799.56
2023-02-18T04:34:50.317Z,101789.94
2023-02-18T04:36:51.942Z,101790.81
2023-02-18T04:38:53.493Z,101775.94
2023-02-18T04:40:54.978Z,101768.94
2023-02-18T04:43:00.111Z,101768.94
2023-02-18T04:45:01.632Z,101772.41
2023-02-18T04:47:04.705Z,101775.03
2023-02-18T04:49:06.233Z,101771.53
2023-02-18T04:51:07.962Z,101763.69
2023-02-18T04:53:09.439Z,101759.31
2023-02-18T04:55:10.998Z,101763.69
2023-02-18T04:57:12.823Z,101765.44
2023-02-18T04:59:14.334Z,101770.69
2023-02-18T05:01:15.910Z,101766.31
2023-02-18T05:03:17.557Z,101766.31
2023-02-18T05:05:19.070Z,101769.81
2023-02-18T05:07:20.526Z,101758.44
2023-02-18T05:09:22.074Z,101752.31
2023-02-18T05:11:23.732Z,101747.06
2023-02-18T05:13:25.212Z,101747.06
2023-02-18T05:15:26.833Z,101746.19
2023-02-18T05:17:28.372Z,101747.06
2023-02-18T05:19:29.961Z,101739.19
2023-02-18T05:21:31.974Z,101737.41
2023-02-18T05:23:33.608Z,101731.28
2023-02-18T05:25:35.164Z,101724.25
2023-02-18T05:27:36.613Z,101706.78
2023-02-18T05:29:38.118Z,101701.53
2023-02-18T05:31:39.802Z,101697.16
2023-02-18T05:33:41.533Z,101698.03
2023-02-18T05:35:42.993Z,101695.41
2023-02-18T05:37:44.504Z,101691.03
2023-02-18T05:39:46.139Z,101683.16
2023-02-18T05:41:47.596Z,101681.41
2023-02-18T05:44:07.607Z,101678.81
2023-02-18T05:46:09.392Z,101677.94
2023-02-18T05:48:11.050Z,101677.94
2023-02-18T05:50:12.700Z,101667.44
2023-02-18T05:52:14.273Z,101648.19
2023-02-18T05:54:15.719Z,101647.31
2023-02-18T05:56:17.187Z,101641.22
2023-02-18T05:58:18.680Z,101644.72
2023-02-18T06:00:20.990Z,101638.59
2023-02-18T06:02:22.504Z,101628.09
2023-02-18T06:04:24.261Z,101631.59
2023-02-18T06:06:25.722Z,101616.72
2023-02-18T06:08:27.275Z,101617.63
2023-02-18T06:10:28.759Z,101615.00
2023-02-18T06:12:30.422Z,101600.16
2023-02-18T06:14:31.985Z,101598.41
2023-02-18T06:16:33.668Z,101594.03
2023-02-18T06:18:35.246Z,101587.91
2023-02-18T06:20:36.693Z,101584.41
2023-02-18T06:22:38.162Z,101579.16
2023-02-18T06:24:39.758Z,101573.03
2023-02-18T06:26:41.361Z,101578.28
2023-02-18T06:28:42.826Z,101571.28
2023-02-18T06:30:45.403Z,101574.78
2023-02-18T06:32:46.858Z,101565.16
2023-02-18T06:34:48.330Z,101566.03
2023-02-18T06:36:49.926Z,101552.94
2023-02-18T06:38:51.693Z,101554.66
2023-02-18T06:40:53.616Z,101548.56
2023-02-18T06:42:55.167Z,101554.66
2023-02-18T06:44:56.650Z,101549.44
2023-02-18T06:46:58.158Z,101548.56
2023-02-18T06:48:59.987Z,101527.56
2023-02-18T06:51:01.532Z,101527.56
2023-02-18T06:53:03.058Z,101526.69
2023-02-18T06:55:05.844Z,101524.06
2023-02-18T06:57:07.848Z,101523.19
2023-02-18T06:59:09.494Z,101523.19
2023-02-18T07:01:10.988Z,101506.56
2023-02-18T07:03:14.527Z,101499.56
2023-02-18T07:05:16.466Z,101499.56
2023-02-18T07:07:17.958Z,101500.44
2023-02-18T07:09:19.418Z,101494.31
2023-02-18T07:11:20.897Z,101488.19
2023-02-18T07:13:22.380Z,101479.47
2023-02-18T07:15:24.458Z,101459.34
2023-02-18T07:17:25.961Z,101450.59
2023-02-18T07:19:27.422Z,101440.09
2023-02-18T07:21:28.893Z,101437.47
2023-02-18T07:23:30.458Z,101433.97
2023-02-18T07:25:31.944Z,101425.22
2023-02-18T07:27:33.424Z,101413.84
2023-02-18T07:29:34.986Z,101419.09
2023-02-18T07:31:38.401Z,101418.22
2023-02-18T07:33:39.889Z,101411.22
2023-02-18T07:35:41.401Z,101406.84
2023-02-18T07:37:50.026Z,101402.44
2023-02-18T07:39:51.521Z,101395.44
2023-02-18T07:41:52.948Z,101397.19
2023-02-18T07:43:54.394Z,101391.94
2023-02-18T07:45:55.946Z,101385.78
2023-02-18T07:47:57.412Z,101379.66
2023-02-18T07:49:58.916Z,101370.00
2023-02-18T07:52:00.996Z,101369.16
2023-02-18T07:54:02.495Z,101377.88
2023-02-18T07:56:05.390Z,101367.38
2023-02-18T07:58:06.953Z,101372.59
2023-02-18T08:00:08.799Z,101356.81
2023-02-18T08:02:18.715Z,101350.63
2023-02-18T08:04:20.310Z,101350.56
2023-02-18T08:06:33.559Z,101351.34
2023-02-18T08:08:37.141Z,101339.94
2023-02-18T08:10:38.818Z,101346.84
2023-02-18T08:12:40.301Z,101338.00
2023-02-18T08:14:42.425Z,101335.31
2023-02-18T08:16:43.965Z,101335.22
2023-02-18T08:18:47.782Z,101324.56
2023-02-18T08:20:50.449Z,101320.91
2023-02-18T08:22:51.936Z,101311.16
2023-02-18T08:24:56.718Z,101312.88
2023-02-18T08:27:01.241Z,101312.78
2023-02-18T08:29:03.447Z,101310.06
2023-02-18T08:31:05.354Z,101308.22
2023-02-18T08:33:06.917Z,101317.75
2023-02-18T08:35:10.126Z,101314.25
2023-02-18T08:37:11.612Z,101305.38
2023-02-18T08:39:13.049Z,101295.63
2023-02-18T08:41:14.904Z,101292.09
2023-02-18T08:43:17.545Z,101277.91
2023-02-18T08:45:19.175Z,101284.84
2023-02-18T08:48:18.460Z,101287.41
2023-02-18T08:49:42.151Z,101275.03
2023-02-18T08:51:43.713Z,101286.34
2023-02-18T08:53:47.177Z,101281.00
2023-02-18T08:55:48.812Z,101286.19
2023-02-18T08:57:50.544Z,101283.44
2023-02-18T08:59:51.985Z,101277.22
2023-02-18T09:01:53.534Z,101275.38
2023-02-18T09:03:55.041Z,101270.97
2023-02-18T09:05:57.306Z,101269.13
2023-02-18T09:07:58.867Z,101271.72
2023-02-18T09:10:00.332Z,101268.16
2023-02-18T09:12:01.877Z,101265.47
2023-02-18T09:14:03.737Z,101273.34
2023-02-18T09:16:08.693Z,101264.53
2023-02-18T09:18:10.189Z,101264.47
2023-02-18T09:20:12.016Z,101260.91
2023-02-18T09:22:13.528Z,101251.22
2023-02-18T09:24:15.327Z,101251.16
2023-02-18T09:26:21.387Z,101246.75
2023-02-18T09:28:23.387Z,101246.69
2023-02-18T09:30:24.881Z,101230.88
2023-02-18T09:32:34.466Z,101242.22
2023-02-18T09:34:36.427Z,101259.75
2023-02-18T09:36:39.413Z,101253.63
2023-02-18T09:38:40.909Z,101251.81
2023-02-18T09:40:47.160Z,101249.16
2023-02-18T09:42:48.870Z,101250.88
2023-02-18T09:44:58.346Z,101244.72
2023-02-18T09:47:03.675Z,101242.97
2023-02-18T09:49:14.394Z,101237.69
2023-02-18T09:51:16.973Z,101239.41
2023-02-18T09:53:18.863Z,101237.59
2023-02-18T09:55:20.529Z,101244.66
2023-02-18T09:57:41.337Z,101240.28
2023-02-18T09:59:45.032Z,101249.06
2023-02-18T10:01:49.356Z,101255.22
2023-02-18T10:03:51.628Z,101247.25
2023-02-18T10:06:02.992Z,101248.16
2023-02-18T10:08:11.592Z,101255.22
2023-02-18T10:10:46.472Z,101242.06
2023-02-18T10:12:48.908Z,101245.59
2023-02-18T10:14:59.041Z,101246.47
2023-02-18T10:17:00.513Z,101254.41
2023-02-18T10:19:18.603Z,101248.25
2023-02-18T10:21:24.274Z,101250.06
2023-02-18T10:23:26.364Z,101241.25
2023-02-18T10:25:29.497Z,101237.69
2023-02-18T10:27:33.867Z,101244.72
2023-02-18T10:29:36.033Z,101245.59
2023-02-18T10:31:43.032Z,101253.50
2023-02-18T10:33:58.352Z,101253.47
2023-02-18T10:36:25.730Z,101252.59
2023-02-18T10:38:29.950Z,101245.63
2023-02-18T10:40:46.549Z,101245.63
2023-02-18T10:43:23.049Z,101248.25
2023-02-18T10:45:30.566Z,101242.97
2023-02-18T10:47:39.200Z,101235.97
2023-02-18T10:50:02.964Z,101248.25
2023-02-18T10:52:06.739Z,101236.00
2023-02-18T10:54:08.505Z,101235.06
2023-02-18T10:56:32.787Z,101237.69
2023-02-18T10:58:46.023Z,101235.97
2023-02-18T11:00:47.539Z,101230.72
2023-02-18T11:03:03.901Z,101229.75
2023-02-18T11:05:18.541Z,101222.69
2023-02-18T11:07:26.180Z,101225.31
2023-02-18T11:09:45.716Z,101233.25
2023-02-18T11:11:53.683Z,101235.84
2023-02-18T11:14:05.367Z,101239.44
2023-02-18T11:16:09.332Z,101223.63
2023-02-18T11:18:36.728Z,101229.78
2023-02-18T11:20:39.182Z,101227.19
2023-02-18T11:22:41.563Z,101234.22
2023-02-18T11:24:48.185Z,101236.84
2023-02-18T11:26:49.712Z,101228.91
2023-02-18T11:28:57.678Z,101237.69
2023-02-18T11:31:02.057Z,101234.06
2023-02-18T11:33:10.087Z,101237.63
2023-02-18T11:35:25.056Z,101237.66
2023-02-18T11:37:26.648Z,101238.53
2023-02-18T11:39:29.483Z,101249.19
2023-02-18T11:41:36.021Z,101239.59
2023-02-18T11:43:42.858Z,101244.88
2023-02-18T11:45:44.695Z,101255.41
2023-02-18T11:47:59.596Z,101245.72
2023-02-18T11:50:10.406Z,101243.09
2023-02-18T11:52:23.827Z,101254.50
2023-02-18T11:54:30.016Z,101264.22
2023-02-18T11:56:34.705Z,101253.72
2023-02-18T11:58:43.748Z,101251.97
2023-02-18T12:00:47.751Z,101253.69
2023-02-18T12:02:52.028Z,101254.59
2023-02-18T12:05:17.432Z,101243.22
2023-02-18T12:07:39.407Z,101257.28
2023-02-18T12:09:48.037Z,101257.22
2023-02-18T12:12:02.802Z,101269.50
2023-02-18T12:14:08.912Z,101258.97
2023-02-18T12:16:15.499Z,101265.06
2023-02-18T12:18:29.141Z,101251.00
2023-02-18T12:20:52.575Z,101257.16
2023-02-18T12:22:58.781Z,101257.13
2023-02-18T12:25:22.162Z,101254.50
2023-02-18T12:27:48.939Z,101254.47
2023-02-18T12:30:18.501Z,101260.66
2023-02-18T12:32:27.025Z,101258.88
2023-02-18T12:34:41.278Z,101251.81
2023-02-18T12:37:04.084Z,101271.22
2023-02-18T12:39:17.274Z,101274.78
2023-02-18T12:41:40.193Z,101286.19
2023-02-18T12:43:56.627Z,101273.94
2023-02-18T12:46:21.248Z,101274.84
2023-02-18T12:48:41.054Z,101283.69
2023-02-18T12:51:32.814Z,101286.31
2023-02-18T12:54:06.006Z,101287.22
2023-02-18T12:56:33.593Z,101294.25
2023-02-18T12:59:01.223Z,101301.28
2023-02-18T13:01:21.429Z,101294.25
2023-02-18T13:03:34.779Z,101303.00
2023-02-18T13:06:09.621Z,101307.41
2023-02-18T13:08:26.790Z,101289.81
2023-02-18T13:10:46.799Z,101307.34
2023-02-18T13:12:57.222Z,101294.16
2023-02-18T13:15:18.570Z,101320.53
2023-02-18T13:17:21.299Z,101303.81
2023-02-18T13:19:36.705Z,101308.19
2023-02-18T13:21:40.613Z,101308.19
2023-02-18T13:24:09.900Z,101313.47
2023-02-18T13:26:14.857Z,101310.84
2023-02-18T13:28:28.585Z,101310.81
2023-02-18T13:30:48.316Z,101314.28
2023-02-18T13:33:19.635Z,101318.66
2023-02-18T13:35:40.089Z,101312.53
2023-02-18T13:37:47.211Z,101325.69
2023-02-18T13:39:53.828Z,101317.75
2023-02-18T13:42:12.760Z,101319.50
2023-02-18T13:44:16.956Z,101315.94
2023-02-18T13:46:21.775Z,101311.56
2023-02-18T13:48:28.201Z,101313.25
2023-02-18T13:50:33.016Z,101329.94
2023-02-18T13:52:34.497Z,101329.09
2023-02-18T13:54:46.909Z,101331.66
2023-02-18T13:56:55.318Z,101332.56
2023-02-18T13:59:09.351Z,101336.06
2023-02-18T14:01:11.023Z,101336.06
2023-02-18T14:03:49.770Z,101340.44
2023-02-18T14:05:56.040Z,101346.63
2023-02-18T14:08:34.888Z,101342.28
2023-02-18T14:10:37.497Z,101344.94
2023-02-18T14:13:00.416Z,101340.59
2023-02-18T14:15:02.005Z,101345.00
2023-02-18T14:17:31.495Z,101350.28
2023-02-18T14:19:32.939Z,101357.34
2023-02-18T14:21:40.547Z,101359.97
2023-02-18T14:23:59.845Z,101367.00
2023-02-18T14:26:32.276Z,101370.47
2023-02-18T14:28:33.688Z,101374.84
2023-02-18T14:30:45.056Z,101377.44
2023-02-18T14:32:47.085Z,101385.28
2023-02-18T14:35:08.610Z,101380.81
2023-02-18T14:37:38.825Z,101372.78
2023-02-18T14:40:01.709Z,101388.47
2023-02-18T14:42:13.369Z,101391.03
2023-02-18T14:44:50.332Z,101379.56
2023-02-18T14:47:22.902Z,101388.28
2023-02-18T14:49:55.437Z,101398.03
2023-02-18T14:51:58.280Z,101387.50
2023-02-18T14:54:05.721Z,101389.28
2023-02-18T14:56:11.258Z,101390.16
2023-02-18T14:58:38.593Z,101400.72
2023-02-18T15:00:42.764Z,101391.03
2023-02-18T15:02:44.251Z,101411.28
2023-02-18T15:04:46.101Z,101407.78
2023-02-18T15:06:58.941Z,101409.53
2023-02-18T15:09:02.063Z,101403.41
2023-02-18T15:11:07.492Z,101409.59
2023-02-18T15:13:21.127Z,101408.72
2023-02-18T15:15:25.052Z,101420.16
2023-02-18T15:17:27.707Z,101426.34
2023-02-18T15:19:38.158Z,101409.59
2023-02-18T15:21:43.261Z,101425.41
2023-02-18T15:23:44.793Z,101424.53
2023-02-18T15:25:51.348Z,101425.44
2023-02-18T15:27:52.905Z,101433.38
2023-02-18T15:30:03.859Z,101436.03
2023-02-18T15:32:16.804Z,101439.59
2023-02-18T15:34:24.117Z,101429.94
2023-02-18T15:36:26.215Z,101431.72
2023-02-18T15:38:28.466Z,101434.38
2023-02-18T15:40:36.998Z,101433.47
2023-02-18T15:42:38.712Z,101436.13
2023-02-18T15:44:47.349Z,101433.50
2023-02-18T15:46:49.177Z,101443.19
2023-02-18T15:48:53.637Z,101445.84
2023-02-18T15:51:02.746Z,101449.41
2023-02-18T15:53:15.162Z,101447.69
2023-02-18T15:55:30.179Z,101456.53
2023-02-18T15:57:33.367Z,101458.34
2023-02-18T15:59:42.687Z,101462.78
2023-02-18T16:01:49.138Z,101454.06
2023-02-18T16:03:50.701Z,101466.44
2023-02-18T16:06:10.261Z,101470.84
2023-02-18T16:08:17.406Z,101470.03
2023-02-18T16:10:25.554Z,101466.53
2023-02-18T16:12:31.298Z,101470.94
2023-02-18T16:14:34.495Z,101483.28
2023-02-18T16:16:39.549Z,101482.44
2023-02-18T16:18:41.658Z,101478.91
2023-02-18T16:20:54.475Z,101482.44
2023-02-18T16:23:01.841Z,101493.91
2023-02-18T16:25:23.382Z,101479.00
2023-02-18T16:27:33.208Z,101494.84
2023-02-18T16:29:36.387Z,101493.13
2023-02-18T16:31:38.005Z,101494.03
2023-02-18T16:33:39.531Z,101497.53
2023-02-18T16:35:49.549Z,101504.56
2023-02-18T16:37:53.410Z,101501.97
2023-02-18T16:39:55.298Z,101503.72
2023-02-18T16:41:56.783Z,101508.13
2023-02-18T16:43:58.245Z,101509.00
2023-02-18T16:46:10.399Z,101509.94
2023-02-18T16:48:21.058Z,101515.19
2023-02-18T16:50:22.792Z,101510.84
2023-02-18T16:52:24.248Z,101507.34
2023-02-18T16:54:28.464Z,101510.84
2023-02-18T16:56:33.180Z,101520.53
2023-02-18T16:58:34.615Z,101516.97
2023-02-18T17:00:36.347Z,101508.25
2023-02-18T17:02:37.899Z,101518.75
2023-02-18T17:04:39.351Z,101524.06
2023-02-18T17:06:41.451Z,101517.94
2023-02-18T17:08:42.970Z,101527.63
2023-02-18T17:10:46.432Z,101526.78
2023-02-18T17:12:47.928Z,101531.19
2023-02-18T17:14:49.377Z,101540.84
2023-02-18T17:16:53.420Z,101542.59
2023-02-18T17:18:54.928Z,101553.19
2023-02-18T17:20:57.238Z,101560.19
2023-02-18T17:22:59.703Z,101553.22
2023-02-18T17:25:01.143Z,101552.38
2023-02-18T17:27:02.615Z,101563.81
2023-02-18T17:29:05.548Z,101577.03
2023-02-18T17:31:12.362Z,101567.44
2023-02-18T17:33:16.792Z,101583.25
2023-02-18T17:35:22.022Z,101582.41
2023-02-18T17:37:23.475Z,101576.31
2023-02-18T17:39:26.014Z,101587.75
2023-02-18T17:41:27.626Z,101595.66
2023-02-18T17:43:29.343Z,101602.69
2023-02-18T17:45:42.101Z,101595.66
2023-02-18T17:47:43.577Z,101596.53
2023-02-18T17:49:45.109Z,101611.47
2023-02-18T17:51:46.756Z,101611.47
2023-02-18T17:53:48.183Z,101607.97
2023-02-18T17:55:50.102Z,101623.78
2023-02-18T17:57:53.175Z,101622.06
2023-02-18T17:59:56.751Z,101625.63
2023-02-18T18:01:59.500Z,101627.38
2023-02-18T18:04:01.835Z,101632.63
2023-02-18T18:06:04.556Z,101629.16
2023-02-18T18:08:07.191Z,101637.94
2023-02-18T18:10:09.682Z,101643.22
2023-02-18T18:12:15.891Z,101635.38
2023-02-18T18:14:17.341Z,101645.94
2023-02-18T18:16:19.872Z,101648.56
2023-02-18T18:18:22.247Z,101652.94
2023-02-18T18:20:26.346Z,101654.72
2023-02-18T18:22:27.794Z,101648.56
2023-02-18T18:24:29.282Z,101655.59
2023-02-18T18:26:30.855Z,101662.66
2023-02-18T18:28:33.376Z,101660.91
2023-02-18T18:30:41.671Z,101657.44
2023-02-18T18:32:43.216Z,101670.59
2023-02-18T18:34:48.989Z,101676.78
2023-02-18T18:36:50.723Z,101668.03
2023-02-18T18:38:52.852Z,101675.06
2023-02-18T18:40:55.438Z,101687.38
2023-02-18T18:42:58.334Z,101682.09
2023-02-18T18:44:59.786Z,101678.56
2023-02-18T18:47:01.335Z,101675.94
2023-02-18T18:49:02.824Z,101677.72
2023-02-18T18:51:04.896Z,101679.47
2023-02-18T18:53:06.889Z,101681.22
2023-02-18T18:55:27.625Z,101678.59
2023-02-18T18:57:29.481Z,101680.38
2023-02-18T18:59:30.917Z,101680.38
2023-02-18T19:01:33.109Z,101681.25
2023-02-18T19:03:35.561Z,101672.47
2023-02-18T19:05:40.780Z,101678.59
2023-02-18T19:07:42.233Z,101690.03
2023-02-18T19:09:43.705Z,101689.13
2023-02-18T19:11:45.172Z,101681.22
2023-02-18T19:13:46.707Z,101686.50
2023-02-18T19:15:49.951Z,101690.88
2023-02-18T19:17:53.726Z,101689.13
2023-02-18T19:19:55.321Z,101690.00
2023-02-18T19:21:56.796Z,101695.25
2023-02-18T19:23:59.774Z,101690.88
2023-02-18T19:26:01.269Z,101697.91
2023-02-18T19:28:03.752Z,101703.19
2023-02-18T19:30:06.794Z,101709.28
2023-02-18T19:32:08.345Z,101708.41
2023-02-18T19:34:09.822Z,101705.78
2023-02-18T19:36:11.882Z,101701.41
2023-02-18T19:38:16.231Z,101706.66
2023-02-18T19:40:20.830Z,101697.91
2023-02-18T19:42:22.312Z,101702.28
2023-02-18T19:44:23.760Z,101697.03
2023-02-18T19:46:25.259Z,101693.50
2023-02-18T19:48:26.807Z,101693.53
2023-02-18T19:50:31.168Z,101693.53
2023-02-18T19:52:32.896Z,101700.56
2023-02-18T19:54:34.394Z,101702.28
2023-02-18T19:56:35.836Z,101702.31
2023-02-18T19:58:40.130Z,101704.91
2023-02-18T20:00:43.641Z,101706.66
2023-02-18T20:02:45.369Z,101706.66
2023-02-18T20:04:47.192Z,101704.03
2023-02-18T20:06:48.647Z,101699.69
2023-02-18T20:08:50.118Z,101702.28
2023-02-18T20:10:58.796Z,101705.81
2023-02-18T20:13:00.370Z,101697.06
2023-02-18T20:15:02.366Z,101698.84
2023-02-18T20:17:07.379Z,101703.22
2023-02-18T20:19:08.840Z,101697.09
2023-02-18T20:21:12.197Z,101701.50
2023-02-18T20:23:14.155Z,101705.00
2023-02-18T20:25:15.696Z,101700.63
2023-02-18T20:27:17.220Z,101704.16
2023-02-18T20:29:21.676Z,101705.91
2023-02-18T20:31:23.287Z,101698.91
2023-02-18T20:33:24.905Z,101695.41
2023-02-18T20:35:26.398Z,101695.44
2023-02-18T20:37:27.965Z,101693.66
2023-02-18T20:39:29.452Z,101697.19
2023-02-18T20:41:30.977Z,101699.81
2023-02-18T20:43:32.970Z,101690.19
2023-02-18T20:45:34.489Z,101698.09
2023-02-18T20:47:35.949Z,101696.34
2023-02-18T20:49:38.406Z,101698.13
2023-02-18T20:51:39.882Z,101692.84
2023-02-18T20:53:43.276Z,101697.25
2023-02-18T20:55:48.154Z,101686.75
2023-02-18T20:57:49.672Z,101690.25
2023-02-18T20:59:51.187Z,101685.88
2023-02-18T21:01:52.950Z,101678.84
2023-02-18T21:03:54.417Z,101678.84
2023-02-18T21:06:11.122Z,101682.34
2023-02-18T21:08:12.550Z,101677.97
2023-02-18T21:10:14.054Z,101682.34
2023-02-18T21:12:15.498Z,101684.97
2023-02-18T21:14:16.995Z,101684.97
2023-02-18T21:16:20.826Z,101678.84
2023-02-18T21:18:22.536Z,101677.09
2023-02-18T21:20:24.024Z,101683.22
2023-02-18T21:22:25.485Z,101677.09
2023-02-18T21:24:27.555Z,101671.84
2023-02-18T21:26:29.365Z,101668.34
2023-02-18T21:28:31.116Z,101670.09
2023-02-18T21:30:38.430Z,101666.59
2023-02-18T21:32:39.898Z,101668.34
2023-02-18T21:34:41.481Z,101665.72
2023-02-18T21:36:44.163Z,101664.88
2023-02-18T21:38:50.627Z,101676.25
2023-02-18T21:40:52.132Z,101666.63
2023-02-18T21:42:53.718Z,101667.50
2023-02-18T21:44:56.493Z,101668.34
2023-02-18T21:46:57.974Z,101670.97
2023-02-18T21:49:02.152Z,101668.34
2023-02-18T21:51:03.739Z,101666.59
2023-02-18T21:53:05.181Z,101659.63
2023-02-18T21:55:07.814Z,101657.00
2023-02-18T21:57:13.959Z,101664.00
2023-02-18T21:59:16.063Z,101660.50
2023-02-18T22:01:17.623Z,101659.63
2023-02-18T22:03:19.139Z,101666.63
2023-02-18T22:05:21.402Z,101663.13
2023-02-18T22:07:27.435Z,101664.03
2023-02-18T22:09:29.483Z,101657.88
2023-02-18T22:11:31.762Z,101652.63
2023-02-18T22:13:33.208Z,101647.38
2023-02-18T22:15:34.655Z,101651.75
2023-02-18T22:17:36.202Z,101652.63
2023-02-18T22:19:37.791Z,101645.63
2023-02-18T22:21:39.727Z,101646.50
2023-02-18T22:23:41.327Z,101647.38
2023-02-18T22:25:42.766Z,101647.38
2023-02-18T22:27:44.240Z,101646.50
2023-02-18T22:29:47.335Z,101639.50
2023-02-18T22:31:49.707Z,101643.00
2023-02-18T22:33:56.395Z,101635.13
2023-02-18T22:36:04.202Z,101634.25
2023-02-18T22:38:05.661Z,101636.00
2023-02-18T22:40:07.382Z,101624.59
2023-02-18T22:42:08.914Z,101618.47
2023-02-18T22:44:16.010Z,101613.22
2023-02-18T22:46:18.303Z,101614.09
2023-02-18T22:48:20.131Z,101610.59
2023-02-18T22:50:21.619Z,101615.84
2023-02-18T22:52:23.100Z,101621.13
2023-02-18T22:54:24.544Z,101623.75
2023-02-18T22:56:27.903Z,101606.25
2023-02-18T22:58:29.601Z,101598.38
2023-02-18T23:00:31.057Z,101594.00
2023-02-18T23:02:32.508Z,101595.75
2023-02-18T23:04:34.009Z,101598.38
2023-02-18T23:06:37.009Z,101597.50
2023-02-18T23:08:38.532Z,101590.50
2023-02-18T23:10:39.973Z,101586.13
2023-02-18T23:12:41.502Z,101587.00
2023-02-18T23:14:43.072Z,101585.25
2023-02-18T23:17:13.949Z,101585.28
2023-02-18T23:19:15.414Z,101585.28
2023-02-18T23:21:22.441Z,101581.78
2023-02-18T23:23:23.971Z,101578.28
2023-02-18T23:25:25.407Z,101572.16
2023-02-18T23:27:27.689Z,101573.00
2023-02-18T23:29:29.202Z,101552.00
2023-02-18T23:31:30.905Z,101553.75
2023-02-18T23:33:32.425Z,101550.25
2023-02-18T23:35:33.896Z,101553.75
2023-02-18T23:37:54.075Z,101552.91
2023-02-18T23:39:55.511Z,101545.00
2023-02-18T23:41:57.206Z,101549.41
2023-02-18T23:43:58.711Z,101551.16
2023-02-18T23:46:00.307Z,101548.53
2023-02-18T23:48:01.788Z,101549.38
2023-02-18T23:50:03.389Z,101561.63
2023-02-18T23:52:05.047Z,101559.91
2023-02-18T23:54:06.568Z,101561.66
2023-02-18T23:56:15.181Z,101558.16